sensor_id;sensor_type;location;lat;lon;timestamp;P1;P2;P0
53698;PMS7003;68408;53.952;27.612;2023-06-26T00:02:38;5.1;4.3;3.7
53698;PMS7003;68408;53.952;27.612;2023-06-26T00:06:50;4.2;3.9;3.4
53698;PMS7003;68408;53.952;27.612;2023-06-26T00:11:58;5.1;4.3;3.5
53698;PMS7003;68408;53.952;27.612;2023-06-26T00:17:38;4.1;3.6;3.1
53698;PMS7003;68408;53.952;27.612;2023-06-26T00:22:04;4.2;3.5;3
53698;PMS7003;68408;53.952;27.612;2023-06-26T00:27:12;4.8;3.9;3.4
53698;PMS7003;68408;53.952;27.612;2023-06-26T00:32:14;4.5;4.2;3.5
53698;PMS7003;68408;53.952;27.612;2023-06-26T00:37:08;4.5;4.2;3.6
53698;PMS7003;68408;53.952;27.612;2023-06-26T00:41:50;5;4.3;3.5
53698;PMS7003;68408;53.952;27.612;2023-06-26T00:47:14;5.3;4.2;3.8
53698;PMS7003;68408;53.952;27.612;2023-06-26T00:52:38;5.7;4.3;3.5
53698;PMS7003;68408;53.952;27.612;2023-06-26T00:57:30;5;4.1;3.6
53698;PMS7003;68408;53.952;27.612;2023-06-26T01:02:12;5.8;4.8;4.1
53698;PMS7003;68408;53.952;27.612;2023-06-26T01:06:50;5.5;4.5;4
53698;PMS7003;68408;53.952;27.612;2023-06-26T01:12:38;5.7;4.8;4
53698;PMS7003;68408;53.952;27.612;2023-06-26T01:16:50;4.9;4.2;3.4
53698;PMS7003;68408;53.952;27.612;2023-06-26T01:21:51;5.3;4.6;3.9
53698;PMS7003;68408;53.952;27.612;2023-06-26T01:27:24;4.7;4.5;3.9
53698;PMS7003;68408;53.952;27.612;2023-06-26T01:32:32;5.6;4.6;3.9
53698;PMS7003;68408;53.952;27.612;2023-06-26T01:37:22;5.3;4.5;3.9
53698;PMS7003;68408;53.952;27.612;2023-06-26T01:41:50;5.8;4.6;4.1
53698;PMS7003;68408;53.952;27.612;2023-06-26T01:47:16;6;4.7;4.1
53698;PMS7003;68408;53.952;27.612;2023-06-26T01:52:41;6;5.3;4.4
53698;PMS7003;68408;53.952;27.612;2023-06-26T01:57:40;5.6;5.1;4.1
53698;PMS7003;68408;53.952;27.612;2023-06-26T02:02:24;5.5;4.9;4.2
53698;PMS7003;68408;53.952;27.612;2023-06-26T02:07:32;6.6;5.1;4.3
53698;PMS7003;68408;53.952;27.612;2023-06-26T02:17:14;6.1;5.1;4.3
53698;PMS7003;68408;53.952;27.612;2023-06-26T02:22:16;5.6;5.5;4.5
53698;PMS7003;68408;53.952;27.612;2023-06-26T02:27:14;6.1;5.4;4.4
53698;PMS7003;68408;53.952;27.612;2023-06-26T02:32:40;6.4;5.2;4.6
53698;PMS7003;68408;53.952;27.612;2023-06-26T02:37:40;6.2;5.5;4.8
53698;PMS7003;68408;53.952;27.612;2023-06-26T02:42:40;6.6;5.8;4.6
53698;PMS7003;68408;53.952;27.612;2023-06-26T02:47:40;6;5.4;4.4
53698;PMS7003;68408;53.952;27.612;2023-06-26T02:52:24;7;5.5;4.5
53698;PMS7003;68408;53.952;27.612;2023-06-26T02:56:50;6.6;5.3;4.6
53698;PMS7003;68408;53.952;27.612;2023-06-26T03:02:24;6;5.3;4.6
53698;PMS7003;68408;53.952;27.612;2023-06-26T03:07:40;6;5.3;4.7
53698;PMS7003;68408;53.952;27.612;2023-06-26T03:12:22;6.6;5.6;4.7
53698;PMS7003;68408;53.952;27.612;2023-06-26T03:17:14;4.4;3.6;2.7
53698;PMS7003;68408;53.952;27.612;2023-06-26T03:21:50;7.3;6.5;5.5
53698;PMS7003;68408;53.952;27.612;2023-06-26T03:27:00;9.6;8.5;7
53698;PMS7003;68408;53.952;27.612;2023-06-26T03:32:22;10.9;7.7;5.9
53698;PMS7003;68408;53.952;27.612;2023-06-26T03:36:50;6.4;5.4;4.5
53698;PMS7003;68408;53.952;27.612;2023-06-26T03:47:22;6.2;5.2;4.6
53698;PMS7003;68408;53.952;27.612;2023-06-26T03:52:40;7.3;5.8;4.9
53698;PMS7003;68408;53.952;27.612;2023-06-26T03:57:16;7.3;6;5.1
53698;PMS7003;68408;53.952;27.612;2023-06-26T04:01:50;7.4;6;5
53698;PMS7003;68408;53.952;27.612;2023-06-26T04:07:22;7.8;6.8;5.7
53698;PMS7003;68408;53.952;27.612;2023-06-26T04:12:06;7.1;6.3;5.4
53698;PMS7003;68408;53.952;27.612;2023-06-26T04:17:04;6.5;5.4;4.7
53698;PMS7003;68408;53.952;27.612;2023-06-26T04:22:22;6.8;5.8;4.8
53698;PMS7003;68408;53.952;27.612;2023-06-26T04:27:40;13.9;10.7;8.5
53698;PMS7003;68408;53.952;27.612;2023-06-26T04:31:50;9.5;8.8;7
53698;PMS7003;68408;53.952;27.612;2023-06-26T04:37:00;7.9;7;5.8
53698;PMS7003;68408;53.952;27.612;2023-06-26T04:42:40;7.3;6.8;5.8
53698;PMS7003;68408;53.952;27.612;2023-06-26T04:46:56;7.6;6.1;5.2
53698;PMS7003;68408;53.952;27.612;2023-06-26T04:52:12;7.5;6.8;5.7
53698;PMS7003;68408;53.952;27.612;2023-06-26T04:57:16;5.5;5.1;4.5
53698;PMS7003;68408;53.952;27.612;2023-06-26T05:02:32;8;6.8;5.5
53698;PMS7003;68408;53.952;27.612;2023-06-26T05:06:50;7.3;6.5;5.4
53698;PMS7003;68408;53.952;27.612;2023-06-26T05:12:00;7.8;6.8;5.8
53698;PMS7003;68408;53.952;27.612;2023-06-26T05:17:38;6.9;6.2;5.3
53698;PMS7003;68408;53.952;27.612;2023-06-26T05:27:20;7.5;6.6;5.3
53698;PMS7003;68408;53.952;27.612;2023-06-26T05:32:16;7.7;6.5;5.4
53698;PMS7003;68408;53.952;27.612;2023-06-26T05:37:38;7.4;6.1;5.4
53698;PMS7003;68408;53.952;27.612;2023-06-26T05:41:50;6.9;5.8;4.8
53698;PMS7003;68408;53.952;27.612;2023-06-26T05:47:06;6.4;5.9;5.2
53698;PMS7003;68408;53.952;27.612;2023-06-26T05:52:24;7.1;6;4.9
53698;PMS7003;68408;53.952;27.612;2023-06-26T05:57:30;5.9;5.7;4.7
53698;PMS7003;68408;53.952;27.612;2023-06-26T06:02:38;5.8;5.3;4.6
53698;PMS7003;68408;53.952;27.612;2023-06-26T06:07:16;6.7;5.6;4.9
53698;PMS7003;68408;53.952;27.612;2023-06-26T06:11:50;5.2;4.8;4.4
53698;PMS7003;68408;53.952;27.612;2023-06-26T06:17:00;4.9;4.3;3.6
53698;PMS7003;68408;53.952;27.612;2023-06-26T06:22:38;6.1;4.8;4.3
53698;PMS7003;68408;53.952;27.612;2023-06-26T06:27:24;5.8;5.3;4.6
53698;PMS7003;68408;53.952;27.612;2023-06-26T06:32:30;5.9;5.2;4.3
53698;PMS7003;68408;53.952;27.612;2023-06-26T06:37:38;5.1;3.9;3.4
53698;PMS7003;68408;53.952;27.612;2023-06-26T06:42:24;4.2;3.7;3.1
53698;PMS7003;68408;53.952;27.612;2023-06-26T06:47:20;4.7;3.8;3.1
53698;PMS7003;68408;53.952;27.612;2023-06-26T06:51:50;4.5;3.6;3.2
53698;PMS7003;68408;53.952;27.612;2023-06-26T06:57:39;4.9;3.9;3.3
53698;PMS7003;68408;53.952;27.612;2023-06-26T07:02:39;5;4.2;3.5
53698;PMS7003;68408;53.952;27.612;2023-06-26T07:07:38;4.6;4.2;3.7
53698;PMS7003;68408;53.952;27.612;2023-06-26T07:12:38;4.1;3.7;3.1
53698;PMS7003;68408;53.952;27.612;2023-06-26T07:17:24;5.3;4.4;3.8
53698;PMS7003;68408;53.952;27.612;2023-06-26T07:21:50;5;4.4;3.5
53698;PMS7003;68408;53.952;27.612;2023-06-26T07:26:59;5.6;5.1;4.5
53698;PMS7003;68408;53.952;27.612;2023-06-26T07:32:38;5;3.5;3
53698;PMS7003;68408;53.952;27.612;2023-06-26T07:37:20;3;2.7;2.3
53698;PMS7003;68408;53.952;27.612;2023-06-26T07:42:02;3.8;2.7;2.4
53698;PMS7003;68408;53.952;27.612;2023-06-26T07:47:39;3.8;3;2.5
53698;PMS7003;68408;53.952;27.612;2023-06-26T07:52:03;3.4;2.5;2.2
53698;PMS7003;68408;53.952;27.612;2023-06-26T07:56:52;2.9;2.4;2.1
53698;PMS7003;68408;53.952;27.612;2023-06-26T08:02:07;3.2;2.9;2.5
53698;PMS7003;68408;53.952;27.612;2023-06-26T08:07:20;3.6;2.6;2.1
53698;PMS7003;68408;53.952;27.612;2023-06-26T08:12:20;2.8;2.2;2
53698;PMS7003;68408;53.952;27.612;2023-06-26T08:17:24;2.9;2.2;1.9
53698;PMS7003;68408;53.952;27.612;2023-06-26T08:21:50;2.8;2;1.7
53698;PMS7003;68408;53.952;27.612;2023-06-26T08:26:50;2.4;1.9;1.7
53698;PMS7003;68408;53.952;27.612;2023-06-26T08:31:50;2.7;2.1;1.9
53698;PMS7003;68408;53.952;27.612;2023-06-26T08:37:05;3;2;1.9
53698;PMS7003;68408;53.952;27.612;2023-06-26T08:42:02;4;2.8;2.6
53698;PMS7003;68408;53.952;27.612;2023-06-26T08:47:16;2.6;2.4;2.3
53698;PMS7003;68408;53.952;27.612;2023-06-26T08:52:37;2.3;1.9;1.6
53698;PMS7003;68408;53.952;27.612;2023-06-26T08:57:15;2.4;2.1;1.8
53698;PMS7003;68408;53.952;27.612;2023-06-26T09:02:14;2.6;2.2;2
53698;PMS7003;68408;53.952;27.612;2023-06-26T09:07:18;2.7;2.3;2
53698;PMS7003;68408;53.952;27.612;2023-06-26T09:12:22;2.5;1.8;1.6
53698;PMS7003;68408;53.952;27.612;2023-06-26T09:16:50;2.6;2.2;1.9
53698;PMS7003;68408;53.952;27.612;2023-06-26T09:22:28;2.8;2.3;2
53698;PMS7003;68408;53.952;27.612;2023-06-26T09:27:36;2.7;2.1;1.9
53698;PMS7003;68408;53.952;27.612;2023-06-26T09:32:18;2.5;2.2;2
53698;PMS7003;68408;53.952;27.612;2023-06-26T09:36:52;2.3;2.1;1.7
53698;PMS7003;68408;53.952;27.612;2023-06-26T09:42:36;2.9;2.3;2.2
53698;PMS7003;68408;53.952;27.612;2023-06-26T09:46:50;3.5;2.7;2.3
53698;PMS7003;68408;53.952;27.612;2023-06-26T09:52:18;2.5;2.3;1.9
53698;PMS7003;68408;53.952;27.612;2023-06-26T09:57:06;2.6;2.3;2
53698;PMS7003;68408;53.952;27.612;2023-06-26T10:02:28;2.2;2.2;1.9
53698;PMS7003;68408;53.952;27.612;2023-06-26T10:07:05;2.9;2.3;2
53698;PMS7003;68408;53.952;27.612;2023-06-26T10:11:52;3;2.6;2.3
53698;PMS7003;68408;53.952;27.612;2023-06-26T10:17:36;3.2;2.7;2.5
53698;PMS7003;68408;53.952;27.612;2023-06-26T10:22:29;2.5;1.9;1.7
53698;PMS7003;68408;53.952;27.612;2023-06-26T10:26:52;2.3;1.9;1.7
53698;PMS7003;68408;53.952;27.612;2023-06-26T10:32:14;2.7;2.3;2
53698;PMS7003;68408;53.952;27.612;2023-06-26T10:37:44;2.6;2.1;1.7
53698;PMS7003;68408;53.952;27.612;2023-06-26T10:42:08;2.6;2.4;2.1
53698;PMS7003;68408;53.952;27.612;2023-06-26T10:47:04;2.6;2.1;1.8
53698;PMS7003;68408;53.952;27.612;2023-06-26T10:52:25;2.1;1.9;1.6
53698;PMS7003;68408;53.952;27.612;2023-06-26T10:57:12;2.8;2;1.8
53698;PMS7003;68408;53.952;27.612;2023-06-26T11:02:47;3;2.2;1.9
53698;PMS7003;68408;53.952;27.612;2023-06-26T11:06:50;1.5;1.1;1
53698;PMS7003;68408;53.952;27.612;2023-06-26T11:11:58;2.1;1.5;1.3
53698;PMS7003;68408;53.952;27.612;2023-06-26T11:16:59;1.7;1.5;1.2
53698;PMS7003;68408;53.952;27.612;2023-06-26T11:22:37;1.5;1;0.9
53698;PMS7003;68408;53.952;27.612;2023-06-26T11:27:22;1;0.9;0.9
53698;PMS7003;68408;53.952;27.612;2023-06-26T11:32:28;1.4;0.9;0.7
53698;PMS7003;68408;53.952;27.612;2023-06-26T11:37:34;1.5;1.3;1.1
53698;PMS7003;68408;53.952;27.612;2023-06-26T11:42:24;2;1.2;1
53698;PMS7003;68408;53.952;27.612;2023-06-26T11:47:00;1.7;1.2;1
53698;PMS7003;68408;53.952;27.612;2023-06-26T11:52:24;2.1;1.7;1.3
53698;PMS7003;68408;53.952;27.612;2023-06-26T11:57:37;1.6;1.2;1
53698;PMS7003;68408;53.952;27.612;2023-06-26T12:02:39;1.7;1.4;1.3
53698;PMS7003;68408;53.952;27.612;2023-06-26T12:07:13;2.1;1.3;1.1
53698;PMS7003;68408;53.952;27.612;2023-06-26T12:12:39;3.1;2.2;1.7
53698;PMS7003;68408;53.952;27.612;2023-06-26T12:16:51;4.1;3.3;2.7
53698;PMS7003;68408;53.952;27.612;2023-06-26T12:21:51;4.5;3.6;2.8
53698;PMS7003;68408;53.952;27.612;2023-06-26T12:26:51;3.9;3.1;2.7
53698;PMS7003;68408;53.952;27.612;2023-06-26T12:32:21;4.3;3.3;3
53698;PMS7003;68408;53.952;27.612;2023-06-26T12:37:21;3.3;2.6;2.2
53698;PMS7003;68408;53.952;27.612;2023-06-26T12:42:25;4.9;3.3;2.9
53698;PMS7003;68408;53.952;27.612;2023-06-26T12:47:07;3.5;3.2;2.7
53698;PMS7003;68408;53.952;27.612;2023-06-26T12:51:51;3.2;3.1;2.5
53698;PMS7003;68408;53.952;27.612;2023-06-26T12:57:01;3.5;2.8;2.3
53698;PMS7003;68408;53.952;27.612;2023-06-26T13:02:01;2.8;2.1;1.8
53698;PMS7003;68408;53.952;27.612;2023-06-26T13:07:15;3.3;2.8;2.6
53698;PMS7003;68408;53.952;27.612;2023-06-26T13:12:23;4.3;2.8;2.3
53698;PMS7003;68408;53.952;27.612;2023-06-26T13:17:39;5;3.6;3
53698;PMS7003;68408;53.952;27.612;2023-06-26T13:21:51;5.1;4.1;3.4
53698;PMS7003;68408;53.952;27.612;2023-06-26T13:27:07;6.7;5.3;4.4
53698;PMS7003;68408;53.952;27.612;2023-06-26T13:31:53;5.1;4.3;3.5
53698;PMS7003;68408;53.952;27.612;2023-06-26T13:37:07;3.5;2.8;2.3
53698;PMS7003;68408;53.952;27.612;2023-06-26T13:42:23;3.3;2.8;2.5
53698;PMS7003;68408;53.952;27.612;2023-06-26T13:47:33;3.7;2.9;2.5
53698;PMS7003;68408;53.952;27.612;2023-06-26T13:52:35;4.7;3.7;3.4
53698;PMS7003;68408;53.952;27.612;2023-06-26T13:57:07;6;5.3;4.5
53698;PMS7003;68408;53.952;27.612;2023-06-26T14:01:51;8.1;6.4;5.4
53698;PMS7003;68408;53.952;27.612;2023-06-26T14:07:41;7.9;6.9;6
53698;PMS7003;68408;53.952;27.612;2023-06-26T14:12:01;7.4;6.1;5.1
53698;PMS7003;68408;53.952;27.612;2023-06-26T14:17:15;6.2;4.4;3.8
53698;PMS7003;68408;53.952;27.612;2023-06-26T14:22:41;4.5;3.9;3.4
53698;PMS7003;68408;53.952;27.612;2023-06-26T14:27:19;4;3.7;3.1
53698;PMS7003;68408;53.952;27.612;2023-06-26T14:32:25;4.3;4;3.4
53698;PMS7003;68408;53.952;27.612;2023-06-26T14:37:01;5;4.4;3.6
53698;PMS7003;68408;53.952;27.612;2023-06-26T14:42:41;5;4;3.5
53698;PMS7003;68408;53.952;27.612;2023-06-26T14:47:33;4;3.4;2.9
53698;PMS7003;68408;53.952;27.612;2023-06-26T14:51:51;3.5;3;2.5
53698;PMS7003;68408;53.952;27.612;2023-06-26T14:57:01;5.3;4;3.4
53698;PMS7003;68408;53.952;27.612;2023-06-26T15:02:41;4.2;3;2.6
53698;PMS7003;68408;53.952;27.612;2023-06-26T15:07:41;5;3.9;3.4
53698;PMS7003;68408;53.952;27.612;2023-06-26T15:11:57;3.9;3.1;2.7
53698;PMS7003;68408;53.952;27.612;2023-06-26T15:17:25;4.8;4.2;3.6
53698;PMS7003;68408;53.952;27.612;2023-06-26T15:22:16;4.6;3.9;3.2
53698;PMS7003;68408;53.952;27.612;2023-06-26T15:27:41;4.8;4.2;3.5
53698;PMS7003;68408;53.952;27.612;2023-06-26T15:32:17;5.9;4.8;4.1
53698;PMS7003;68408;53.952;27.612;2023-06-26T15:36:51;5.4;4.2;3.5
53698;PMS7003;68408;53.952;27.612;2023-06-26T15:42:01;5.6;5;4.1
53698;PMS7003;68408;53.952;27.612;2023-06-26T15:47:41;5.3;4.2;3.7
53698;PMS7003;68408;53.952;27.612;2023-06-26T15:52:25;4.8;3.6;3
53698;PMS7003;68408;53.952;27.612;2023-06-26T15:57:33;3.1;2.8;2.3
53698;PMS7003;68408;53.952;27.612;2023-06-26T16:02:41;3.1;2.7;2.3
53698;PMS7003;68408;53.952;27.612;2023-06-26T16:07:09;2.8;2.4;2
53698;PMS7003;68408;53.952;27.612;2023-06-26T16:11:51;3.5;2.6;2.5
53698;PMS7003;68408;53.952;27.612;2023-06-26T16:17:19;3.1;2.6;2.2
53698;PMS7003;68408;53.952;27.612;2023-06-26T16:22:41;7.5;6.5;5.1
53698;PMS7003;68408;53.952;27.612;2023-06-26T16:32:15;5.1;4.2;3.4
53698;PMS7003;68408;53.952;27.612;2023-06-26T16:37:41;3.8;3.1;2.7
53698;PMS7003;68408;53.952;27.612;2023-06-26T16:41:51;3.6;3.4;2.9
53698;PMS7003;68408;53.952;27.612;2023-06-26T16:47:01;3.6;3.2;2.6
53698;PMS7003;68408;53.952;27.612;2023-06-26T16:52:07;3.8;3.1;2.8
53698;PMS7003;68408;53.952;27.612;2023-06-26T16:57:41;4.2;3.8;3
53698;PMS7003;68408;53.952;27.612;2023-06-26T17:02:23;4.6;3.4;2.9
53698;PMS7003;68408;53.952;27.612;2023-06-26T17:07:25;4.6;3.7;3.2
53698;PMS7003;68408;53.952;27.612;2023-06-26T17:12:17;5.9;4.5;3.9
53698;PMS7003;68408;53.952;27.612;2023-06-26T17:17:01;9.1;8;6.3
53698;PMS7003;68408;53.952;27.612;2023-06-26T17:21:51;7.9;7;5.7
53698;PMS7003;68408;53.952;27.612;2023-06-26T17:27:07;4.8;3.9;3.4
53698;PMS7003;68408;53.952;27.612;2023-06-26T17:32:15;4.4;3.4;2.9
53698;PMS7003;68408;53.952;27.612;2023-06-26T17:37:25;2.9;2.5;2.2
53698;PMS7003;68408;53.952;27.612;2023-06-26T17:42:41;3.9;2.7;2.4
53698;PMS7003;68408;53.952;27.612;2023-06-26T17:47:07;4.4;3.4;2.8
53698;PMS7003;68408;53.952;27.612;2023-06-26T17:51:51;6.7;5.7;4.8
53698;PMS7003;68408;53.952;27.612;2023-06-26T17:57:25;9.6;8.1;6.8
53698;PMS7003;68408;53.952;27.612;2023-06-26T18:02:07;3.5;3;2.6
53698;PMS7003;68408;53.952;27.612;2023-06-26T18:07:31;3.2;2.3;2.1
53698;PMS7003;68408;53.952;27.612;2023-06-26T18:12:31;3;2.3;2
53698;PMS7003;68408;53.952;27.612;2023-06-26T18:17:43;3;2.6;2.2
53698;PMS7003;68408;53.952;27.612;2023-06-26T18:21:51;3.9;3.1;2.3
53698;PMS7003;68408;53.952;27.612;2023-06-26T18:27:07;4;3.1;2.3
53698;PMS7003;68408;53.952;27.612;2023-06-26T18:32:43;3.4;3.1;2.7
53698;PMS7003;68408;53.952;27.612;2023-06-26T18:36:51;4;3.3;2.8
53698;PMS7003;68408;53.952;27.612;2023-06-26T18:42:15;4.3;3.7;3.1
53698;PMS7003;68408;53.952;27.612;2023-06-26T18:47:05;5;4.3;3.5
53698;PMS7003;68408;53.952;27.612;2023-06-26T18:52:31;4.6;4;3.4
53698;PMS7003;68408;53.952;27.612;2023-06-26T18:56:51;4.8;3.8;3.3
53698;PMS7003;68408;53.952;27.612;2023-06-26T19:07:41;5.5;4.7;4
53698;PMS7003;68408;53.952;27.612;2023-06-26T19:12:33;5.4;5.1;4.2
53698;PMS7003;68408;53.952;27.612;2023-06-26T19:17:15;13;11.1;8.6
53698;PMS7003;68408;53.952;27.612;2023-06-26T19:22:17;9.4;7.6;6.3
53698;PMS7003;68408;53.952;27.612;2023-06-26T19:27:42;7.9;6.5;5.3
53698;PMS7003;68408;53.952;27.612;2023-06-26T19:32:15;6.2;5;4.2
53698;PMS7003;68408;53.952;27.612;2023-06-26T19:37:43;5.4;4.3;3.6
53698;PMS7003;68408;53.952;27.612;2023-06-26T19:42:25;5.8;4.8;4.1
53698;PMS7003;68408;53.952;27.612;2023-06-26T19:47:33;5.5;4.6;3.9
53698;PMS7003;68408;53.952;27.612;2023-06-26T19:52:43;4.9;4.1;3.4
53698;PMS7003;68408;53.952;27.612;2023-06-26T19:57:17;5.2;4.2;3.5
53698;PMS7003;68408;53.952;27.612;2023-06-26T20:02:17;4.7;3.9;3.2
53698;PMS7003;68408;53.952;27.612;2023-06-26T20:07:01;4.7;3.9;3.2
53698;PMS7003;68408;53.952;27.612;2023-06-26T20:12:43;5;4.2;3.7
53698;PMS7003;68408;53.952;27.612;2023-06-26T20:17:43;5;4.2;3.7
53698;PMS7003;68408;53.952;27.612;2023-06-26T20:22:41;8.2;7.3;6
53698;PMS7003;68408;53.952;27.612;2023-06-26T20:27:43;22.8;19.1;13.2
53698;PMS7003;68408;53.952;27.612;2023-06-26T20:32:27;6.2;5.2;4.3
53698;PMS7003;68408;53.952;27.612;2023-06-26T20:42:25;7.5;4.6;4.5
53698;PMS7003;68408;53.952;27.612;2023-06-26T20:47:43;6.8;5.3;4.3
53698;PMS7003;68408;53.952;27.612;2023-06-26T21:11:51;5.7;5;4.2
53698;PMS7003;68408;53.952;27.612;2023-06-26T21:16:57;5.7;5;4.2
53698;PMS7003;68408;53.952;27.612;2023-06-26T21:32:27;4.5;4.2;3.5
53698;PMS7003;68408;53.952;27.612;2023-06-26T21:57:15;5.3;4.5;3.7
53698;PMS7003;68408;53.952;27.612;2023-06-26T22:02:15;4.8;4.6;3.7
53698;PMS7003;68408;53.952;27.612;2023-06-26T22:07:43;5.9;4.8;4
53698;PMS7003;68408;53.952;27.612;2023-06-26T22:12:01;5.9;4.9;3.9
53698;PMS7003;68408;53.952;27.612;2023-06-26T22:17:17;5.1;4.6;3.8
53698;PMS7003;68408;53.952;27.612;2023-06-26T22:22:25;5;4.4;3.9
53698;PMS7003;68408;53.952;27.612;2023-06-26T22:27:27;5.2;4.1;3.5
53698;PMS7003;68408;53.952;27.612;2023-06-26T22:32:33;6;4.7;4.1
53698;PMS7003;68408;53.952;27.612;2023-06-26T22:37:33;6.5;5.5;4.5
53698;PMS7003;68408;53.952;27.612;2023-06-26T22:42:43;6;4.9;4.2
53698;PMS7003;68408;53.952;27.612;2023-06-26T22:47:43;5.8;4.8;4
53698;PMS7003;68408;53.952;27.612;2023-06-26T22:51:51;5.5;4.7;4.1
53698;PMS7003;68408;53.952;27.612;2023-06-26T22:57:43;5.2;4.4;3.8
53698;PMS7003;68408;53.952;27.612;2023-06-26T23:02:27;6.2;5.2;4.5
53698;PMS7003;68408;53.952;27.612;2023-06-26T23:07:15;5.8;5;4.1
53698;PMS7003;68408;53.952;27.612;2023-06-26T23:12:17;5.7;5.3;4.3
53698;PMS7003;68408;53.952;27.612;2023-06-26T23:17:33;5.5;4.9;4.2
53698;PMS7003;68408;53.952;27.612;2023-06-26T23:21:51;6.3;5.2;4.4
53698;PMS7003;68408;53.952;27.612;2023-06-26T23:27:17;7;5.4;4.4
53698;PMS7003;68408;53.952;27.612;2023-06-26T23:32:41;6.9;6;4.9
53698;PMS7003;68408;53.952;27.612;2023-06-26T23:37:33;7.4;6.3;5.1
53698;PMS7003;68408;53.952;27.612;2023-06-26T23:42:15;5.8;5.1;4.3
53698;PMS7003;68408;53.952;27.612;2023-06-26T23:47:17;6.8;5.6;4.8
53698;PMS7003;68408;53.952;27.612;2023-06-26T23:52:43;8;6.7;5.8
53698;PMS7003;68408;53.952;27.612;2023-06-26T23:57:01;7.1;6.2;5
